Time;durP1;ratioP1;P1;durP2;ratioP2;P2;SDS_P1;SDS_P2;PMS_P1;PMS_P2;Temp;Humidity;BMP_temperature;BMP_pressure;BME280_temperature;BME280_humidity;BME280_pressure;Samples;Min_cycle;Max_cycle;Signal;HPM_P1;HPM_P2
2021/08/10 00:00:35;;;;;;;5.22;2.88;;;;;;;15.94;80.64;100609.88;5073138;28;20432;-47
2021/08/10 00:03:23;;;;;;;3.67;3.20;;;;;;;15.94;80.84;100615.47;5075510;28;20051;-50
2021/08/10 00:06:11;;;;;;;8.55;3.40;;;;;;;15.97;80.94;100608.31;5074628;28;20514;-45
2021/08/10 00:08:58;;;;;;;26.42;5.57;;;;;;;16.02;80.76;100619.16;5073091;28;20044;-44
2021/08/10 00:11:46;;;;;;;4.45;3.05;;;;;;;16.02;80.68;100605.97;5075898;28;20484;-45
2021/08/10 00:14:33;;;;;;;7.00;3.90;;;;;;;15.98;81.08;100612.72;5076484;28;20153;-50
2021/08/10 00:17:20;;;;;;;6.03;3.80;;;;;;;16.02;80.86;100610.78;5076059;28;20052;-44
2021/08/10 00:20:08;;;;;;;4.38;3.28;;;;;;;16.02;81.02;100605.97;5076056;28;20051;-47
2021/08/10 00:22:56;;;;;;;5.90;3.22;;;;;;;16.01;81.25;100609.16;5074058;28;20055;-47
2021/08/10 00:25:43;;;;;;;5.15;2.95;;;;;;;16.02;81.20;100605.97;5074083;28;20177;-45
2021/08/10 00:28:30;;;;;;;5.10;3.20;;;;;;;16.03;81.02;100617.94;5075527;28;20060;-46
2021/08/10 00:31:17;;;;;;;5.93;3.28;;;;;;;16.02;81.08;100611.56;5073910;28;20052;-48
2021/08/10 00:34:04;;;;;;;7.85;3.58;;;;;;;15.97;81.26;100611.09;5074140;28;20055;-46
2021/08/10 00:36:51;;;;;;;7.60;3.60;;;;;;;15.94;81.60;100607.09;5074218;28;20044;-45
2021/08/10 00:39:39;;;;;;;6.32;3.15;;;;;;;15.92;81.74;100617.03;5074935;28;20047;-45
2021/08/10 00:42:26;;;;;;;7.65;3.40;;;;;;;15.93;81.65;100613.06;5072640;28;20040;-44
2021/08/10 00:45:16;;;;;;;5.78;3.50;;;;;;;15.96;81.80;100613.13;5072183;28;20094;-50
2021/08/10 00:48:04;;;;;;;8.15;3.97;;;;;;;15.98;81.60;100613.53;5069460;28;20047;-46
2021/08/10 00:50:51;;;;;;;6.00;3.50;;;;;;;15.95;81.90;100625.47;5059026;28;20398;-46
2021/08/10 00:53:39;;;;;;;7.22;3.42;;;;;;;15.97;81.62;100623.06;5074418;28;20048;-46
2021/08/10 00:56:26;;;;;;;6.03;3.50;;;;;;;15.99;81.74;100629.06;5074265;28;20044;-44
2021/08/10 00:59:13;;;;;;;7.55;4.25;;;;;;;15.97;81.73;100630.66;5075992;28;20051;-46
2021/08/10 01:02:02;;;;;;;5.40;3.67;;;;;;;16.01;81.61;100632.31;5074605;28;20052;-47
2021/08/10 01:04:49;;;;;;;4.78;3.30;;;;;;;16.01;81.25;100635.09;5073375;28;20043;-44
2021/08/10 01:08:25;;;;;;;6.50;3.55;;;;;;;15.99;81.52;100634.66;5059454;28;20106;-45
2021/08/10 01:11:26;;;;;;;5.25;3.45;;;;;;;15.97;81.41;100636.22;5056797;28;20058;-46
2021/08/10 01:14:28;;;;;;;9.88;3.65;;;;;;;15.95;81.77;100642.22;5071473;28;20048;-48
2021/08/10 01:17:21;;;;;;;7.50;3.30;;;;;;;15.90;81.86;100631.41;5064234;28;20302;-49
2021/08/10 01:20:27;;;;;;;9.32;4.70;;;;;;;15.94;81.81;100640.59;5071240;28;20058;-45
2021/08/10 01:23:17;;;;;;;4.35;3.40;;;;;;;15.94;81.69;100637.81;5073304;28;20044;-45
2021/08/10 01:26:39;;;;;;;7.80;3.60;;;;;;;15.92;81.97;100639.38;5078201;28;20464;-44
2021/08/10 01:29:35;;;;;;;6.93;3.70;;;;;;;15.90;81.85;100642.56;5048114;28;20517;-43
2021/08/10 01:32:23;;;;;;;6.07;3.47;;;;;;;15.92;81.92;100642.16;5078549;28;20493;-45
2021/08/10 01:35:12;;;;;;;8.73;3.97;;;;;;;15.89;82.01;100651.31;5079023;28;20512;-45
2021/08/10 01:38:02;;;;;;;7.82;4.75;;;;;;;15.85;82.08;100645.72;5077691;28;20063;-45
2021/08/10 01:40:50;;;;;;;6.03;4.20;;;;;;;15.86;82.19;100652.09;5078355;28;20084;-45
2021/08/10 01:43:40;;;;;;;11.40;4.68;;;;;;;15.81;82.33;100656.81;5078055;28;20424;-45
2021/08/10 01:46:28;;;;;;;5.55;3.88;;;;;;;15.81;82.47;100658.81;5078091;28;20061;-51
2021/08/10 01:49:15;;;;;;;11.90;3.53;;;;;;;15.77;82.56;100666.34;5076622;28;20056;-44
2021/08/10 01:52:05;;;;;;;7.55;3.53;;;;;;;15.79;82.50;100656.41;5077737;28;20047;-44
2021/08/10 01:54:54;;;;;;;6.60;3.42;;;;;;;15.80;82.32;100671.19;5077157;28;20048;-44
2021/08/10 01:57:42;;;;;;;7.13;5.03;;;;;;;15.76;82.40;100664.75;5078617;28;20052;-46
2021/08/10 02:00:31;;;;;;;5.50;3.60;;;;;;;15.73;82.30;100660.72;5077128;28;20093;-45
2021/08/10 02:03:19;;;;;;;10.70;3.97;;;;;;;15.73;82.07;100659.91;5075820;28;20146;-45
2021/08/10 02:06:07;;;;;;;9.73;3.50;;;;;;;15.70;81.96;100663.50;5076099;28;20130;-45
2021/08/10 02:08:56;;;;;;;8.63;3.80;;;;;;;15.60;82.25;100667.75;5077855;28;21131;-50
2021/08/10 02:11:44;;;;;;;10.15;3.90;;;;;;;15.57;82.19;100662.94;5076509;28;20822;-45
2021/08/10 02:14:32;;;;;;;13.73;5.43;;;;;;;15.57;82.31;100676.06;5075668;28;20501;-46
2021/08/10 02:17:19;;;;;;;7.47;3.80;;;;;;;15.56;82.35;100678.09;5075557;28;20056;-54
2021/08/10 02:20:10;;;;;;;6.63;3.30;;;;;;;15.57;82.36;100671.31;5078978;28;20178;-45
2021/08/10 02:22:58;;;;;;;8.45;3.42;;;;;;;15.60;82.19;100680.91;5076622;28;20059;-52
2021/08/10 02:25:47;;;;;;;8.70;4.50;;;;;;;15.57;82.47;100673.28;5076835;28;20062;-45
2021/08/10 02:28:36;;;;;;;9.45;4.03;;;;;;;15.57;82.36;100685.25;5077515;28;20084;-47
2021/08/10 02:31:27;;;;;;;8.27;3.40;;;;;;;15.58;82.37;100680.47;5077780;28;20052;-44
2021/08/10 02:34:16;;;;;;;9.52;3.40;;;;;;;15.57;82.25;100690.03;5065271;28;20514;-46
2021/08/10 02:37:05;;;;;;;6.10;3.75;;;;;;;15.57;82.41;100690.84;5061452;28;20040;-50
2021/08/10 02:39:53;;;;;;;4.15;3.53;;;;;;;15.56;82.38;100694.81;5078676;28;20486;-46
2021/08/10 02:42:43;;;;;;;9.55;4.65;;;;;;;15.52;82.71;100696.75;5074016;28;20066;-46
2021/08/10 02:45:36;;;;;;;7.65;3.47;;;;;;;15.52;82.80;100702.34;5068693;28;20071;-47
2021/08/10 02:48:30;;;;;;;6.75;3.38;;;;;;;15.51;82.96;100702.72;5078343;28;20268;-44
2021/08/10 02:51:17;;;;;;;8.75;3.72;;;;;;;15.51;82.90;100708.31;5074147;28;20055;-44
2021/08/10 02:54:05;;;;;;;12.60;3.97;;;;;;;15.50;82.94;100703.91;5075136;28;20044;-47
2021/08/10 02:57:00;;;;;;;8.15;4.47;;;;;;;15.45;83.38;100710.59;5073904;28;20050;-43
2021/08/10 02:59:57;;;;;;;8.75;3.80;;;;;;;15.48;83.59;100714.66;5062222;28;20056;-49
2021/08/10 03:02:51;;;;;;;8.85;3.40;;;;;;;15.54;83.13;100713.91;5075618;28;21115;-48
2021/08/10 03:05:45;;;;;;;9.95;3.75;;;;;;;15.53;83.20;100717.09;5076074;28;20453;-47
2021/08/10 03:08:35;;;;;;;9.23;3.80;;;;;;;15.52;83.28;100724.66;5074937;28;20112;-47
2021/08/10 03:11:23;;;;;;;12.02;3.80;;;;;;;15.48;83.66;100725.81;5062261;28;20056;-44
2021/08/10 03:14:12;;;;;;;9.30;4.07;;;;;;;15.46;83.33;100723.38;5075149;28;20105;-44
2021/08/10 03:17:03;;;;;;;11.07;4.22;;;;;;;15.49;83.20;100721.84;5076382;28;20044;-49
2021/08/10 03:19:51;;;;;;;9.10;3.97;;;;;;;15.46;83.21;100722.59;5075795;28;20044;-46
2021/08/10 03:22:42;;;;;;;9.30;5.32;;;;;;;15.43;83.25;100723.31;5073964;28;20914;-47
2021/08/10 03:25:30;;;;;;;8.10;4.18;;;;;;;15.38;83.26;100726.44;5076036;28;20760;-49
2021/08/10 03:28:19;;;;;;;9.48;4.40;;;;;;;15.37;83.39;100727.59;5076535;28;20059;-51
2021/08/10 03:31:06;;;;;;;12.50;5.10;;;;;;;15.38;83.41;100729.22;5071934;28;20065;-46
2021/08/10 03:33:54;;;;;;;10.18;4.30;;;;;;;15.39;83.15;100733.59;5075626;28;20056;-47
2021/08/10 03:36:41;;;;;;;24.75;6.35;;;;;;;15.44;82.96;100736.06;5074570;28;20512;-42
2021/08/10 03:39:28;;;;;;;11.10;5.47;;;;;;;15.41;83.13;100739.63;5076958;28;20074;-47
2021/08/10 03:42:16;;;;;;;12.48;5.32;;;;;;;15.40;82.86;100738.00;5073955;28;20048;-43
2021/08/10 03:45:04;;;;;;;9.48;5.68;;;;;;;15.37;83.01;100742.38;5073672;28;20114;-48
2021/08/10 03:47:52;;;;;;;14.40;6.38;;;;;;;15.38;82.78;100740.38;5074425;28;20952;-44
2021/08/10 03:50:40;;;;;;;11.50;6.43;;;;;;;15.35;82.84;100744.75;5074409;28;20051;-47
2021/08/10 03:53:29;;;;;;;9.45;6.50;;;;;;;15.33;82.84;100746.28;5075873;28;20213;-42
2021/08/10 03:56:20;;;;;;;11.65;6.68;;;;;;;15.29;83.07;100753.78;5074416;28;20050;-44
2021/08/10 03:59:10;;;;;;;8.57;5.82;;;;;;;15.25;82.92;100746.19;5075099;28;20047;-45
2021/08/10 04:01:57;;;;;;;17.55;5.90;;;;;;;15.26;82.68;100746.97;5074475;28;20198;-51
2021/08/10 04:04:48;;;;;;;15.75;6.60;;;;;;;15.21;82.74;100756.50;5073284;28;20043;-42
2021/08/10 04:07:35;;;;;;;14.10;6.05;;;;;;;15.24;82.68;100754.94;5074985;28;20485;-43
2021/08/10 04:10:22;;;;;;;11.80;6.43;;;;;;;15.20;82.77;100754.06;5074050;28;20469;-42
2021/08/10 04:13:11;;;;;;;14.02;6.05;;;;;;;15.16;82.97;100754.03;5074850;28;20405;-48
2021/08/10 04:16:02;;;;;;;12.98;6.57;;;;;;;15.14;82.93;100761.94;5073399;28;20056;-46
2021/08/10 04:18:49;;;;;;;15.70;6.90;;;;;;;15.16;82.94;100759.59;5072916;28;20059;-49
2021/08/10 04:21:36;;;;;;;10.13;6.85;;;;;;;15.11;82.98;100757.16;5058795;28;20540;-43
2021/08/10 04:24:24;;;;;;;14.98;6.60;;;;;;;15.09;82.80;100759.47;5071177;28;20083;-44
2021/08/10 04:27:15;;;;;;;14.00;7.25;;;;;;;15.07;83.03;100761.03;5060901;28;20052;-42
2021/08/10 04:30:02;;;;;;;12.45;6.68;;;;;;;15.01;82.85;100762.56;5071809;28;20758;-48
2021/08/10 04:32:49;;;;;;;12.70;7.25;;;;;;;14.96;82.96;100772.03;5076168;28;20058;-43
2021/08/10 04:35:37;;;;;;;13.38;5.65;;;;;;;14.95;82.87;100769.63;5074481;28;20126;-47
2021/08/10 04:38:24;;;;;;;12.38;6.75;;;;;;;14.89;83.32;100771.91;5074357;28;20546;-42
2021/08/10 04:41:13;;;;;;;15.02;7.18;;;;;;;14.88;83.26;100770.28;5073040;28;20055;-46
2021/08/10 04:44:00;;;;;;;17.42;6.78;;;;;;;14.79;83.62;100778.13;5073907;28;20044;-42
2021/08/10 04:46:48;;;;;;;12.20;6.35;;;;;;;14.81;83.54;100770.19;5071653;28;20393;-44
2021/08/10 04:49:35;;;;;;;17.17;6.22;;;;;;;14.84;83.29;100775.03;5072736;28;20642;-42
2021/08/10 04:52:22;;;;;;;10.35;7.20;;;;;;;14.84;83.32;100779.78;5073334;28;20048;-44
2021/08/10 04:55:10;;;;;;;14.55;6.32;;;;;;;14.86;83.28;100783.00;5072883;28;20163;-42
2021/08/10 04:57:57;;;;;;;15.73;7.07;;;;;;;14.85;83.23;100782.19;5074096;28;20055;-43
2021/08/10 05:00:47;;;;;;;11.80;7.05;;;;;;;14.82;83.36;100780.16;5072758;28;20052;-44
2021/08/10 05:03:35;;;;;;;14.88;6.65;;;;;;;14.81;83.38;100783.31;5072632;28;20044;-42
2021/08/10 05:06:22;;;;;;;16.05;8.00;;;;;;;14.82;83.44;100794.09;5071466;28;20421;-46
2021/08/10 05:09:09;;;;;;;15.02;7.47;;;;;;;14.73;83.61;100801.91;5075385;28;20061;-43
2021/08/10 05:11:57;;;;;;;11.10;6.97;;;;;;;14.75;83.54;100790.38;5072595;28;20044;-44
2021/08/10 05:14:44;;;;;;;15.88;9.10;;;;;;;14.76;83.54;100801.16;5073826;28;20071;-49
2021/08/10 05:17:32;;;;;;;16.30;9.63;;;;;;;14.69;83.56;100803.84;5072101;28;20051;-46
2021/08/10 05:20:19;;;;;;;22.80;11.40;;;;;;;14.69;83.70;100805.81;5074641;28;20074;-43
2021/08/10 05:23:06;;;;;;;20.58;11.85;;;;;;;14.70;83.42;100813.78;5070742;28;20055;-44
2021/08/10 05:25:53;;;;;;;18.00;10.05;;;;;;;14.68;83.37;100810.56;5074154;28;20048;-42
2021/08/10 05:28:40;;;;;;;21.77;10.75;;;;;;;14.66;83.52;100812.13;5071234;28;20056;-44
2021/08/10 05:31:27;;;;;;;18.30;10.38;;;;;;;14.64;83.60;100820.84;5072358;28;20381;-42
2021/08/10 05:34:14;;;;;;;21.92;11.23;;;;;;;14.66;83.45;100824.09;5072939;28;20052;-46
2021/08/10 05:37:01;;;;;;;18.92;10.32;;;;;;;14.63;83.41;100838.75;5074269;28;20036;-42
2021/08/10 05:39:48;;;;;;;19.30;9.57;;;;;;;14.57;83.77;100843.00;5072349;28;20071;-42
2021/08/10 05:42:36;;;;;;;22.70;10.68;;;;;;;14.57;83.83;100834.66;5072558;28;20051;-41
2021/08/10 05:45:23;;;;;;;16.30;9.40;;;;;;;14.51;84.08;100834.16;5072574;28;20074;-41
2021/08/10 05:48:13;;;;;;;20.50;9.10;;;;;;;14.52;83.89;100840.53;5071768;28;20051;-47
2021/08/10 05:51:01;;;;;;;17.27;9.02;;;;;;;14.44;84.06;100838.78;5071090;28;20048;-42
2021/08/10 05:53:48;;;;;;;16.52;8.75;;;;;;;14.43;84.15;100842.72;5070813;28;20052;-45
2021/08/10 05:56:35;;;;;;;21.90;9.20;;;;;;;14.39;84.27;100844.66;5073138;28;20067;-46
2021/08/10 05:59:22;;;;;;;14.35;9.60;;;;;;;14.43;84.02;100837.16;5069685;28;20040;-43
2021/08/10 06:02:09;;;;;;;15.65;8.93;;;;;;;14.45;84.05;100837.63;5069861;28;20070;-45
2021/08/10 06:04:56;;;;;;;16.67;9.32;;;;;;;14.44;83.92;100841.56;5057643;28;20044;-43
2021/08/10 06:07:43;;;;;;;17.38;8.50;;;;;;;14.39;83.97;100836.28;5073087;28;20051;-43
2021/08/10 06:10:31;;;;;;;13.43;8.90;;;;;;;14.30;84.24;100839.28;5074211;28;20056;-45
2021/08/10 06:13:18;;;;;;;19.42;8.60;;;;;;;14.33;83.99;100840.53;5074685;28;20191;-42
2021/08/10 06:16:05;;;;;;;13.35;8.25;;;;;;;14.31;83.96;100845.66;5072473;28;20113;-43
2021/08/10 06:18:52;;;;;;;14.40;7.65;;;;;;;14.31;83.82;100851.22;5074941;28;20056;-44
2021/08/10 06:21:41;;;;;;;14.32;7.88;;;;;;;14.29;83.98;100836.88;5074578;28;20409;-48
2021/08/10 06:24:53;;;;;;;13.45;7.72;;;;;;;14.34;84.06;100833.81;5073714;28;20448;-42
2021/08/10 06:27:40;;;;;;;17.60;9.02;;;;;;;14.36;83.89;100837.03;5074252;28;20055;-43
2021/08/10 06:30:27;;;;;;;12.63;7.70;;;;;;;14.38;83.90;100840.25;5075650;28;20822;-44
2021/08/10 06:33:14;;;;;;;15.15;7.95;;;;;;;14.41;83.58;100839.50;5075706;28;21199;-43
2021/08/10 06:36:03;;;;;;;17.70;8.95;;;;;;;14.45;83.50;100840.41;5060408;28;20052;-46
2021/08/10 06:38:50;;;;;;;15.20;7.57;;;;;;;14.37;83.49;100838.66;5073246;28;20484;-43
2021/08/10 06:41:37;;;;;;;18.08;9.13;;;;;;;14.40;83.70;100843.50;5074954;28;20051;-45
2021/08/10 06:44:24;;;;;;;17.23;8.80;;;;;;;14.45;83.63;100851.53;5072534;28;20052;-43
2021/08/10 06:47:11;;;;;;;15.55;9.00;;;;;;;14.48;83.51;100850.81;5075198;28;20421;-46
2021/08/10 06:49:58;;;;;;;20.77;10.93;;;;;;;14.51;83.43;100850.84;5074185;28;20131;-46
2021/08/10 06:52:47;;;;;;;20.33;9.15;;;;;;;14.51;83.56;100850.03;5075670;28;20104;-44
2021/08/10 06:55:34;;;;;;;24.40;9.50;;;;;;;14.49;83.63;100846.84;5074626;28;20398;-44
2021/08/10 06:58:21;;;;;;;21.67;9.20;;;;;;;14.53;83.71;100858.88;5074270;28;20100;-47
2021/08/10 07:01:09;;;;;;;17.20;9.68;;;;;;;14.55;83.47;100856.50;5073400;28;20052;-44
2021/08/10 07:03:57;;;;;;;17.13;8.85;;;;;;;14.54;83.73;100854.88;5071399;28;20040;-45
2021/08/10 07:06:44;;;;;;;15.82;9.07;;;;;;;14.54;83.64;100852.91;5074783;28;20051;-43
2021/08/10 07:09:32;;;;;;;17.58;8.23;;;;;;;14.59;83.56;100857.38;5075324;28;20207;-54
2021/08/10 07:12:19;;;;;;;13.43;7.75;;;;;;;14.64;83.54;100855.09;5074324;28;20190;-45
2021/08/10 07:15:07;;;;;;;12.60;6.85;;;;;;;14.70;83.58;100861.16;5076445;28;20413;-45
2021/08/10 07:17:54;;;;;;;15.40;8.20;;;;;;;14.83;83.38;100867.34;5078406;28;20079;-49
2021/08/10 07:20:42;;;;;;;12.18;7.00;;;;;;;14.93;83.29;100867.56;5076542;28;20054;-45
2021/08/10 07:23:29;;;;;;;16.15;8.40;;;;;;;14.96;83.29;100868.78;5072488;28;20198;-46
2021/08/10 07:26:16;;;;;;;10.63;6.90;;;;;;;15.01;83.39;100871.28;5076485;28;20501;-47
2021/08/10 07:29:04;;;;;;;12.30;6.88;;;;;;;15.07;83.36;100876.16;5066900;28;20047;-47
2021/08/10 07:31:51;;;;;;;11.25;6.70;;;;;;;15.20;83.15;100872.00;5075498;28;20108;-48
2021/08/10 07:34:38;;;;;;;9.52;5.95;;;;;;;15.29;83.00;100874.56;5072005;28;20104;-45
2021/08/10 07:37:39;;;;;;;10.43;7.03;;;;;;;15.36;82.33;100865.47;5072974;28;20058;-47
2021/08/10 07:40:26;;;;;;;10.73;6.03;;;;;;;15.38;82.43;100877.88;5075978;28;20048;-46
2021/08/10 07:43:13;;;;;;;14.77;6.53;;;;;;;15.41;82.26;100873.56;5072926;28;20059;-50
2021/08/10 07:46:00;;;;;;;10.77;6.25;;;;;;;15.44;82.15;100876.38;5075990;28;20189;-51
2021/08/10 07:48:48;;;;;;;14.48;7.07;;;;;;;15.53;82.17;100890.09;5074700;28;20044;-47
2021/08/10 07:51:35;;;;;;;9.90;6.60;;;;;;;15.58;82.03;100887.00;5073338;28;20056;-46
2021/08/10 07:54:22;;;;;;;14.32;6.65;;;;;;;15.59;81.69;100888.59;5071123;28;20058;-49
2021/08/10 07:57:09;;;;;;;12.70;6.32;;;;;;;15.68;81.94;100887.16;5073631;28;20485;-51
2021/08/10 07:59:56;;;;;;;7.03;5.63;;;;;;;15.81;82.35;100884.94;5074839;28;20040;-47
2021/08/10 08:02:43;;;;;;;12.85;6.70;;;;;;;15.93;83.11;100879.13;5058172;28;20048;-45
2021/08/10 08:05:32;;;;;;;12.45;6.68;;;;;;;16.10;84.24;100874.94;5074498;28;20992;-47
2021/08/10 08:08:19;;;;;;;9.95;5.43;;;;;;;16.30;85.62;100884.81;5074300;28;20052;-52
2021/08/10 08:11:06;;;;;;;8.60;4.65;;;;;;;16.51;86.76;100878.66;5073604;28;20059;-46
2021/08/10 08:13:53;;;;;;;7.22;5.03;;;;;;;16.78;88.05;100874.59;5074492;28;20062;-45
2021/08/10 08:16:40;;;;;;;6.22;4.00;;;;;;;17.13;88.26;100877.72;5072166;28;20056;-44
2021/08/10 08:19:29;;;;;;;5.65;3.30;;;;;;;17.51;87.22;100877.25;5066629;28;20063;-49
2021/08/10 08:22:16;;;;;;;4.80;2.60;;;;;;;17.97;86.62;100882.38;5068645;28;20193;-44
2021/08/10 08:25:04;;;;;;;4.97;2.63;;;;;;;18.53;84.57;100882.63;5072363;28;20052;-46
2021/08/10 08:27:51;;;;;;;5.65;2.25;;;;;;;19.26;80.96;100885.97;5073200;28;20062;-49
2021/08/10 08:30:40;;;;;;;5.90;2.10;;;;;;;20.08;77.25;100889.50;5074100;28;20055;-45
2021/08/10 08:33:28;;;;;;;4.95;2.50;;;;;;;20.72;73.94;100882.44;5073877;28;21336;-48
2021/08/10 08:36:18;;;;;;;4.93;2.25;;;;;;;21.46;70.76;100887.53;5071096;28;20043;-54
2021/08/10 08:39:05;;;;;;;4.57;2.22;;;;;;;22.09;68.16;100894.59;5070178;28;20054;-49
2021/08/10 08:41:53;;;;;;;4.18;1.88;;;;;;;22.64;65.75;100876.59;5073765;28;20051;-43
2021/08/10 08:44:41;;;;;;;5.82;1.88;;;;;;;23.06;63.38;100873.13;5074546;28;20127;-42
2021/08/10 08:47:28;;;;;;;6.32;2.33;;;;;;;23.44;61.47;100882.25;5070042;28;20052;-44
2021/08/10 08:50:20;;;;;;;5.97;1.95;;;;;;;23.72;59.70;100883.78;5070240;28;20580;-46
2021/08/10 08:53:14;;;;;;;4.20;2.03;;;;;;;23.99;58.94;100884.47;5071968;28;20055;-49
2021/08/10 08:56:02;;;;;;;7.18;2.47;;;;;;;24.28;58.94;100894.00;5073247;28;20055;-43
2021/08/10 08:58:52;;;;;;;6.10;3.05;;;;;;;24.16;58.54;100892.66;5073943;28;20052;-46
2021/08/10 09:01:39;;;;;;;9.68;2.00;;;;;;;24.15;58.02;100893.06;5070943;28;20060;-43
2021/08/10 09:04:27;;;;;;;6.28;1.83;;;;;;;24.55;56.88;100897.50;5070132;28;20040;-46
2021/08/10 09:07:14;;;;;;;5.30;1.50;;;;;;;24.82;55.91;100894.50;5070777;28;20529;-46
2021/08/10 09:10:10;;;;;;;4.38;1.38;;;;;;;24.68;55.20;100898.41;5071796;28;20090;-43
2021/08/10 09:12:58;;;;;;;2.72;1.58;;;;;;;24.88;55.07;100891.94;5071755;28;20470;-46
2021/08/10 09:15:46;;;;;;;3.83;1.58;;;;;;;24.80;54.75;100892.13;5071223;28;20066;-47
2021/08/10 09:18:39;;;;;;;5.15;2.20;;;;;;;24.79;54.05;100901.84;5071568;28;20052;-45
2021/08/10 09:21:26;;;;;;;3.40;2.08;;;;;;;24.08;54.63;100907.31;5071888;28;20068;-46
2021/08/10 09:24:13;;;;;;;6.45;1.90;;;;;;;23.08;54.84;100901.78;5056740;28;20048;-46
2021/08/10 09:27:00;;;;;;;3.55;1.73;;;;;;;22.25;55.71;100906.09;5071536;28;20533;-45
2021/08/10 09:29:48;;;;;;;4.82;2.95;;;;;;;22.19;56.25;100892.84;5072661;28;20058;-42
2021/08/10 09:32:56;;;;;;;4.72;2.25;;;;;;;22.81;55.26;100898.13;5072939;28;20128;-47
2021/08/10 09:35:44;;;;;;;6.28;2.38;;;;;;;22.91;55.41;100897.97;5072607;28;20560;-48
2021/08/10 09:38:31;;;;;;;6.88;2.42;;;;;;;22.65;55.48;100900.78;5069531;28;20060;-43
2021/08/10 09:41:18;;;;;;;6.40;2.45;;;;;;;22.05;55.89;100896.66;5073636;28;20754;-43
2021/08/10 09:44:06;;;;;;;5.07;2.60;;;;;;;21.42;56.64;100902.88;5073445;28;20054;-45
2021/08/10 09:46:53;;;;;;;5.30;2.00;;;;;;;21.01;57.38;100906.38;5075464;28;20054;-46
2021/08/10 09:49:46;;;;;;;5.18;2.50;;;;;;;20.56;58.11;100907.44;5060879;28;20059;-45
2021/08/10 09:52:33;;;;;;;8.50;3.25;;;;;;;20.30;58.98;100910.75;5077505;28;20523;-49
2021/08/10 09:55:20;;;;;;;6.60;3.00;;;;;;;20.00;60.08;100920.44;5062606;28;20047;-44
2021/08/10 09:58:07;;;;;;;5.10;3.35;;;;;;;19.82;59.82;100914.06;5076129;28;20048;-50
2021/08/10 10:00:59;;;;;;;4.75;3.38;;;;;;;19.51;60.49;100914.91;5062395;28;20052;-50
2021/08/10 10:03:47;;;;;;;5.85;3.17;;;;;;;19.41;61.06;100915.69;5075335;28;20063;-43
2021/08/10 10:06:34;;;;;;;6.10;3.53;;;;;;;19.43;61.06;100919.69;5073590;28;20055;-47
2021/08/10 10:09:25;;;;;;;4.90;2.55;;;;;;;19.87;60.95;100921.28;5075736;28;20056;-42
2021/08/10 10:12:14;;;;;;;5.35;3.03;;;;;;;20.65;60.51;100928.28;5072708;28;20048;-51
2021/08/10 10:15:01;;;;;;;8.05;3.67;;;;;;;21.29;59.71;100921.50;5072749;28;20056;-43
2021/08/10 10:17:49;;;;;;;3.42;3.03;;;;;;;22.11;58.54;100922.34;5072828;28;20055;-52
2021/08/10 10:20:40;;;;;;;5.72;3.38;;;;;;;22.69;56.94;100935.41;5077100;28;20091;-49
2021/08/10 10:23:27;;;;;;;6.63;4.00;;;;;;;22.45;56.50;100920.38;5075920;28;20063;-51
2021/08/10 10:26:16;;;;;;;6.25;3.25;;;;;;;22.30;56.12;100922.53;5076516;28;20477;-43
2021/08/10 10:29:03;;;;;;;8.27;3.78;;;;;;;22.45;55.69;100937.28;5060704;28;20109;-47
2021/08/10 10:31:51;;;;;;;6.38;3.67;;;;;;;22.30;55.57;100936.66;5074584;28;20055;-53
2021/08/10 10:34:42;;;;;;;5.53;3.30;;;;;;;22.20;56.04;100931.13;5076920;28;20505;-48
2021/08/10 10:37:31;;;;;;;6.40;3.25;;;;;;;22.27;55.98;100937.47;5074792;28;22396;-46
2021/08/10 10:40:20;;;;;;;3.72;2.38;;;;;;;21.90;55.73;100940.28;5074094;28;20060;-43
2021/08/10 10:43:07;;;;;;;6.80;3.63;;;;;;;21.54;56.14;100939.00;5075532;28;20044;-43
2021/08/10 10:45:55;;;;;;;7.55;3.17;;;;;;;21.36;56.62;100943.97;5075589;28;20677;-47
2021/08/10 10:48:43;;;;;;;4.97;2.60;;;;;;;21.45;56.76;100945.09;5071650;28;20337;-42
2021/08/10 10:51:33;;;;;;;2.80;2.15;;;;;;;21.50;56.24;100941.81;5075071;28;20465;-42
2021/08/10 10:54:25;;;;;;;7.22;2.55;;;;;;;21.32;56.36;100934.72;5075760;28;20048;-45
2021/08/10 10:57:30;;;;;;;4.70;2.67;;;;;;;21.17;56.38;100936.84;5073523;28;20901;-42
2021/08/10 11:00:20;;;;;;;4.47;1.73;;;;;;;21.07;56.71;100938.53;5074003;28;20048;-49
2021/08/10 11:03:12;;;;;;;3.72;2.25;;;;;;;21.01;56.45;100942.97;5070246;28;20073;-43
2021/08/10 11:06:32;;;;;;;5.50;2.05;;;;;;;21.00;56.70;100938.53;5076295;28;20189;-48
2021/08/10 11:09:37;;;;;;;5.05;2.25;;;;;;;21.01;57.08;100939.34;5075240;28;20110;-44
2021/08/10 11:12:44;;;;;;;5.65;2.75;;;;;;;20.95;57.20;100947.41;5074879;28;20546;-44
2021/08/10 11:15:44;;;;;;;4.95;2.60;;;;;;;20.99;57.14;100945.41;5074511;28;20420;-42
2021/08/10 11:18:33;;;;;;;5.20;1.95;;;;;;;21.07;57.05;100946.19;5073849;28;20059;-45
2021/08/10 11:21:23;;;;;;;2.97;2.33;;;;;;;21.13;56.34;100950.94;5076232;28;20051;-43
2021/08/10 11:24:31;;;;;;;6.75;1.90;;;;;;;21.16;55.40;100947.31;5073777;28;20460;-44
2021/08/10 11:27:43;;;;;;;3.95;2.13;;;;;;;21.43;54.87;100939.06;5075068;28;20519;-43
2021/08/10 11:30:30;;;;;;;3.60;1.98;;;;;;;21.41;55.63;100949.97;5073853;28;20057;-43
2021/08/10 11:33:32;;;;;;;4.72;2.03;;;;;;;21.57;54.40;100929.72;5077249;28;20098;-43
2021/08/10 11:36:21;;;;;;;4.40;2.00;;;;;;;21.68;55.28;100933.25;5037548;28;20601;-47
2021/08/10 11:39:10;;;;;;;5.93;2.05;;;;;;;21.83;55.48;100931.88;5038703;28;20392;-44
2021/08/10 11:41:57;;;;;;;3.13;1.30;;;;;;;21.95;55.19;100939.84;5035833;28;20061;-45
2021/08/10 11:44:44;;;;;;;5.28;1.90;;;;;;;21.89;54.26;100933.06;5038310;28;20048;-46
2021/08/10 11:47:32;;;;;;;5.78;1.70;;;;;;;21.81;53.84;100928.69;5037837;28;20419;-46
2021/08/10 11:50:26;;;;;;;2.40;1.42;;;;;;;21.92;51.99;100925.78;5037000;28;20053;-41
2021/08/10 11:53:27;;;;;;;4.32;1.42;;;;;;;21.97;51.95;100917.69;5037379;28;20546;-46
2021/08/10 11:56:32;;;;;;;3.22;1.30;;;;;;;21.96;51.92;100927.34;5037023;28;20071;-45
2021/08/10 11:59:24;;;;;;;1.65;0.77;;;;;;;21.96;51.96;100920.91;5038754;28;20049;-42
2021/08/10 12:02:11;;;;;;;1.95;0.50;;;;;;;22.03;51.39;100915.22;5036432;28;20099;-42
2021/08/10 12:04:59;;;;;;;4.03;1.55;;;;;;;21.94;51.51;100915.69;5037143;28;20985;-45
2021/08/10 12:07:56;;;;;;;3.35;1.17;;;;;;;21.92;50.36;100920.16;5035869;28;20052;-46
2021/08/10 12:10:46;;;;;;;3.45;0.93;;;;;;;22.02;49.85;100925.69;5038982;28;20529;-44
2021/08/10 12:13:33;;;;;;;2.35;0.90;;;;;;;22.05;50.32;100924.84;5036595;28;20477;-42
2021/08/10 12:16:20;;;;;;;3.08;2.20;;;;;;;22.00;50.70;100921.69;5037525;28;20045;-42
2021/08/10 12:19:07;;;;;;;4.43;1.55;;;;;;;21.97;51.49;100917.69;5037313;28;20059;-46
2021/08/10 12:21:54;;;;;;;3.97;2.45;;;;;;;21.79;52.00;100915.00;5032725;28;20167;-43
2021/08/10 12:24:42;;;;;;;2.88;1.63;;;;;;;21.70;52.17;100919.53;5030758;28;20049;-42
2021/08/10 12:27:32;;;;;;;4.13;1.60;;;;;;;21.75;51.88;100917.06;5034992;28;20060;-46
2021/08/10 12:30:19;;;;;;;2.63;1.48;;;;;;;21.70;51.68;100911.06;5029995;28;20155;-42
2021/08/10 12:33:19;;;;;;;4.45;2.35;;;;;;;21.62;51.17;100918.81;5033140;28;20055;-48
2021/08/10 12:36:07;;;;;;;3.83;1.58;;;;;;;21.76;52.01;100912.22;5032858;28;20623;-40
2021/08/10 12:38:59;;;;;;;5.15;1.40;;;;;;;21.78;52.73;100912.59;5034187;28;20037;-42
2021/08/10 12:41:49;;;;;;;4.28;2.20;;;;;;;21.58;53.60;100918.00;5035142;28;20053;-45
2021/08/10 12:44:37;;;;;;;3.70;1.60;;;;;;;21.52;54.45;100918.88;5034121;28;20920;-47
2021/08/10 12:47:36;;;;;;;10.85;2.97;;;;;;;21.50;56.28;100910.06;5034259;28;22006;-41
2021/08/10 12:50:29;;;;;;;4.80;2.35;;;;;;;21.82;56.32;100911.34;5034913;28;20130;-48
2021/08/10 12:53:32;;;;;;;5.60;2.33;;;;;;;21.95;56.54;100917.28;5033786;28;20057;-42
2021/08/10 12:56:19;;;;;;;2.45;2.25;;;;;;;22.01;56.38;100915.63;5030850;28;20326;-43
2021/08/10 12:59:06;;;;;;;9.85;1.88;;;;;;;22.08;56.36;100914.75;5034487;28;21008;-42
2021/08/10 13:01:53;;;;;;;5.35;2.70;;;;;;;22.08;56.05;100929.63;5032025;28;20076;-43
2021/08/10 13:04:56;;;;;;;5.85;1.90;;;;;;;21.83;56.23;100918.59;5035256;28;20053;-44